createdAt,value
2018-07-02T00:00:15.876Z,1.90
2018-07-02T00:02:45.639Z,1.90
2018-07-02T00:05:14.611Z,1.90
2018-07-02T00:07:43.642Z,2.00
2018-07-02T00:10:16.229Z,2.07
2018-07-02T00:12:45.443Z,2.03
2018-07-02T00:15:14.702Z,1.83
2018-07-02T00:17:44.160Z,2.07
2018-07-02T00:20:15.534Z,2.20
2018-07-02T00:22:44.587Z,1.87
2018-07-02T00:25:13.715Z,1.70
2018-07-02T00:27:42.806Z,1.87
2018-07-02T00:30:14.847Z,1.67
2018-07-02T00:32:43.795Z,2.00
2018-07-02T00:35:12.864Z,1.87
2018-07-02T00:37:42.292Z,2.13
2018-07-02T00:40:13.715Z,1.90
2018-07-02T00:42:42.806Z,2.20
2018-07-02T00:45:11.753Z,1.80
2018-07-02T00:47:40.847Z,2.20
2018-07-02T00:50:13.202Z,1.97
2018-07-02T00:52:42.286Z,1.90
2018-07-02T00:55:11.699Z,2.20
2018-07-02T00:57:41.382Z,1.93
2018-07-02T01:00:15.914Z,2.00
2018-07-02T01:02:44.913Z,2.00
2018-07-02T01:05:14.107Z,1.87
2018-07-02T01:07:44.235Z,1.83
2018-07-02T01:10:13.478Z,1.43
2018-07-02T01:12:42.721Z,1.80
2018-07-02T01:15:12.036Z,1.70
2018-07-02T01:17:41.342Z,1.60
2018-07-02T01:20:10.312Z,1.80
2018-07-02T01:22:39.277Z,1.70
2018-07-02T01:25:08.390Z,1.60
2018-07-02T01:27:37.657Z,1.77
2018-07-02T01:30:07.858Z,1.40
2018-07-02T01:32:37.919Z,2.00
2018-07-02T01:35:07.033Z,1.80
2018-07-02T01:37:36.001Z,1.80
2018-07-02T01:40:07.584Z,1.80
2018-07-02T01:42:36.643Z,1.70
2018-07-02T01:45:05.808Z,2.07
2018-07-02T01:47:35.073Z,1.63
2018-07-02T01:50:07.564Z,1.63
2018-07-02T01:52:36.816Z,1.90
2018-07-02T01:55:06.248Z,1.77
2018-07-02T01:57:35.329Z,1.77
2018-07-02T02:00:07.922Z,1.60
2018-07-02T02:02:36.985Z,1.50
2018-07-02T02:05:06.054Z,1.70
2018-07-02T02:07:35.026Z,1.90
2018-07-02T02:10:07.115Z,1.47
2018-07-02T02:12:36.368Z,1.63
2018-07-02T02:15:06.397Z,1.57
2018-07-02T02:17:35.787Z,1.40
2018-07-02T02:20:07.878Z,1.23
2018-07-02T02:22:37.011Z,1.50
2018-07-02T02:25:07.216Z,1.63
2018-07-02T02:27:36.180Z,1.57
2018-07-02T02:30:08.598Z,1.50
2018-07-02T02:32:37.555Z,1.53
2018-07-02T02:35:06.788Z,1.50
2018-07-02T02:37:35.920Z,1.47
2018-07-02T02:40:11.786Z,1.40
2018-07-02T02:42:41.307Z,1.60
2018-07-02T02:45:11.653Z,1.60
2018-07-02T02:47:41.826Z,1.40
2018-07-02T02:50:13.534Z,1.30
2018-07-02T02:52:42.740Z,1.70
2018-07-02T02:55:11.654Z,1.30
2018-07-02T02:57:40.759Z,1.57
2018-07-02T03:00:13.313Z,1.47
2018-07-02T03:02:42.755Z,1.40
2018-07-02T03:05:11.657Z,1.43
2018-07-02T03:07:40.724Z,1.40
2018-07-02T03:10:13.575Z,1.57
2018-07-02T03:12:42.702Z,1.43
2018-07-02T03:15:11.667Z,1.47
2018-07-02T03:17:40.691Z,1.07
2018-07-02T03:20:12.496Z,1.60
2018-07-02T03:22:41.516Z,1.20
2018-07-02T03:25:10.629Z,1.60
2018-07-02T03:27:39.698Z,1.80
2018-07-02T03:30:11.873Z,1.30
2018-07-02T03:32:40.994Z,1.50
2018-07-02T03:35:09.919Z,1.40
2018-07-02T03:37:38.886Z,1.63
2018-07-02T03:40:12.151Z,1.53
2018-07-02T03:42:41.324Z,1.73
2018-07-02T03:45:10.288Z,1.20
2018-07-02T03:47:39.226Z,1.87
2018-07-02T03:50:12.245Z,1.90
2018-07-02T03:52:41.187Z,1.50
2018-07-02T03:55:10.126Z,1.13
2018-07-02T03:57:39.067Z,1.20
2018-07-02T04:00:11.748Z,1.23
2018-07-02T04:02:41.075Z,1.30
2018-07-02T04:05:10.239Z,1.27
2018-07-02T04:07:39.382Z,1.40
2018-07-02T04:10:12.155Z,1.30
2018-07-02T04:12:41.317Z,1.37
2018-07-02T04:15:11.930Z,1.17
2018-07-02T04:17:40.983Z,1.70
2018-07-02T04:20:13.759Z,1.53
2018-07-02T04:22:43.076Z,1.70
2018-07-02T04:25:12.099Z,1.47
2018-07-02T04:27:41.039Z,1.00
2018-07-02T04:30:14.080Z,1.10
2018-07-02T04:32:43.157Z,1.00
2018-07-02T04:35:12.526Z,1.27
2018-07-02T04:37:41.852Z,1.00
2018-07-02T04:40:16.426Z,1.10
2018-07-02T04:42:46.282Z,1.40
2018-07-02T04:45:15.682Z,1.07
2018-07-02T04:47:46.973Z,1.10
2018-07-02T04:50:15.070Z,1.23
2018-07-02T04:52:44.280Z,1.23
2018-07-02T04:55:13.567Z,1.03
2018-07-02T04:57:42.840Z,1.20
2018-07-02T05:00:14.420Z,5.67
2018-07-02T05:02:43.963Z,3.13
2018-07-02T05:05:13.188Z,2.33
2018-07-02T05:07:42.347Z,1.73
2018-07-02T05:10:15.314Z,1.80
2018-07-02T05:12:44.422Z,1.27
2018-07-02T05:15:14.225Z,1.10
2018-07-02T05:17:43.136Z,1.10
2018-07-02T13:22:21.401Z,1.30
2018-07-02T13:24:50.420Z,1.53
2018-07-02T13:27:19.441Z,1.30
2018-07-02T13:29:48.489Z,1.20
2018-07-02T13:32:17.435Z,1.60
2018-07-02T13:34:46.278Z,3.10
2018-07-02T13:37:15.354Z,1.27
2018-07-02T13:39:44.962Z,1.90
2018-07-02T13:42:13.943Z,2.07
2018-07-02T13:44:42.907Z,2.97
2018-07-02T13:47:12.120Z,1.50
2018-07-02T13:49:41.250Z,2.63
2018-07-02T13:52:10.767Z,1.50
2018-07-02T13:54:39.828Z,2.57
2018-07-02T13:57:09.143Z,1.53
2018-07-02T13:59:38.120Z,1.53
2018-07-02T14:02:07.231Z,2.20
2018-07-02T14:04:36.211Z,1.10
2018-07-02T14:07:06.300Z,3.00
2018-07-02T14:09:35.237Z,1.50
2018-07-02T14:12:05.146Z,1.20
2018-07-02T14:14:35.135Z,1.17
2018-07-02T14:17:04.484Z,2.50
2018-07-02T14:19:33.543Z,2.10
2018-07-02T14:22:02.470Z,2.27
2018-07-02T14:24:31.486Z,1.50
2018-07-02T14:27:00.666Z,2.07
2018-07-02T14:29:30.237Z,1.77
2018-07-02T14:31:59.188Z,1.37
2018-07-02T14:34:28.425Z,1.60
2018-07-02T14:36:57.970Z,1.23
2018-07-02T14:39:26.972Z,1.50
2018-07-02T14:41:55.868Z,1.33
2018-07-02T14:44:24.835Z,1.40
2018-07-02T14:46:54.042Z,1.37
2018-07-02T14:49:24.327Z,1.20
2018-07-02T14:51:53.600Z,1.67
2018-07-02T14:54:22.736Z,1.53
2018-07-02T14:56:52.656Z,1.33
2018-07-02T14:59:21.666Z,1.40
2018-07-02T15:01:50.631Z,1.07
2018-07-02T15:04:19.627Z,1.47
2018-07-02T15:06:48.963Z,1.40
2018-07-02T15:09:18.158Z,1.63
2018-07-02T15:11:47.127Z,1.43
2018-07-02T15:14:16.214Z,2.20
2018-07-02T15:16:45.220Z,1.30
2018-07-02T15:19:14.324Z,1.30
2018-07-02T15:21:43.436Z,1.30
2018-07-02T15:24:12.570Z,1.40
2018-07-02T15:26:41.514Z,1.57
2018-07-02T15:29:10.509Z,1.73
2018-07-02T15:31:40.172Z,1.80
2018-07-02T15:34:09.501Z,1.67
2018-07-02T15:36:38.670Z,1.27
2018-07-02T15:39:10.495Z,1.30
2018-07-02T15:41:40.093Z,1.80
2018-07-02T15:44:09.088Z,1.40
2018-07-02T15:46:38.723Z,1.97
2018-07-02T15:49:07.785Z,1.80
2018-07-02T15:51:36.840Z,1.43
2018-07-02T15:54:05.931Z,1.20
2018-07-02T15:56:34.914Z,1.83
2018-07-02T15:59:03.875Z,1.47
2018-07-02T16:01:33.841Z,1.83
2018-07-02T16:04:03.779Z,1.50
2018-07-02T16:06:33.488Z,1.20
2018-07-02T16:09:02.703Z,1.47
2018-07-02T16:11:31.750Z,1.67
2018-07-02T16:14:00.851Z,1.37
2018-07-02T16:16:30.019Z,1.00
2018-07-02T16:18:59.175Z,3.00
2018-07-02T16:21:28.422Z,2.20
2018-07-02T16:23:57.391Z,1.40
2018-07-02T16:26:26.345Z,1.97
2018-07-02T16:28:55.519Z,1.90
2018-07-02T16:31:24.599Z,2.30
2018-07-02T16:33:53.714Z,1.60
2018-07-02T16:36:22.857Z,1.57
2018-07-02T16:38:52.126Z,1.83
2018-07-02T16:41:21.674Z,1.73
2018-07-02T16:43:51.892Z,1.50
2018-07-02T16:46:21.364Z,1.10
2018-07-02T16:48:50.657Z,1.67
2018-07-02T16:51:19.782Z,1.60
2018-07-02T16:53:48.781Z,1.93
2018-07-02T16:56:18.140Z,1.10
2018-07-02T16:58:47.130Z,1.50
2018-07-02T17:01:16.160Z,1.13
2018-07-02T17:03:45.129Z,1.10
2018-07-02T17:06:14.733Z,1.50
2018-07-02T17:08:43.917Z,1.70
2018-07-02T17:11:14.019Z,1.40
2018-07-02T17:13:42.957Z,3.13
2018-07-02T17:16:12.259Z,1.90
2018-07-02T17:18:41.740Z,1.10
2018-07-02T17:21:10.876Z,1.40
2018-07-02T17:23:44.207Z,1.10
2018-07-02T17:26:13.803Z,1.50
2018-07-02T17:28:43.197Z,1.40
2018-07-02T17:31:12.764Z,1.17
2018-07-02T17:33:41.800Z,1.47
2018-07-02T17:36:11.055Z,1.50
2018-07-02T17:38:40.108Z,1.27
2018-07-02T17:41:09.659Z,1.40
2018-07-02T17:43:38.958Z,1.07
2018-07-02T17:46:08.187Z,1.53
2018-07-02T17:48:37.409Z,1.20
2018-07-02T17:51:06.932Z,1.43
2018-07-02T17:53:36.080Z,1.53
2018-07-02T17:56:05.587Z,1.30
2018-07-02T17:58:34.826Z,1.33
2018-07-02T18:01:04.707Z,1.00
2018-07-02T18:03:33.830Z,1.77
2018-07-02T18:06:02.982Z,1.57
2018-07-02T18:08:31.999Z,1.40
2018-07-02T18:11:01.170Z,1.20
2018-07-02T18:13:31.028Z,1.40
2018-07-02T18:16:00.011Z,1.47
2018-07-02T18:18:29.215Z,1.27
2018-07-02T18:20:58.947Z,1.20
2018-07-02T18:23:28.070Z,1.30
2018-07-02T18:25:57.877Z,0.73
2018-07-02T18:28:27.172Z,1.83
2018-07-02T18:30:56.717Z,1.10
2018-07-02T18:33:25.930Z,1.23
2018-07-02T18:35:54.907Z,1.43
2018-07-02T18:38:24.124Z,0.83
2018-07-02T18:40:53.244Z,1.23
2018-07-02T18:43:22.342Z,1.30
2018-07-02T18:45:51.486Z,1.40
2018-07-02T18:48:21.369Z,1.30
2018-07-02T18:50:51.215Z,1.00
2018-07-02T18:53:20.341Z,1.80
2018-07-02T18:55:49.359Z,1.90
2018-07-02T18:58:18.375Z,1.70
2018-07-02T19:00:48.394Z,1.53
2018-07-02T19:03:18.523Z,1.70
2018-07-02T19:05:48.334Z,1.63
2018-07-02T19:08:17.835Z,1.77
2018-07-02T19:10:47.037Z,1.70
2018-07-02T19:13:16.542Z,1.97
2018-07-02T19:15:46.453Z,1.70
2018-07-02T19:18:16.422Z,1.73
2018-07-02T19:20:45.665Z,1.90
2018-07-02T19:23:14.975Z,2.23
2018-07-02T19:25:44.130Z,3.60
2018-07-02T19:28:13.907Z,2.00
2018-07-02T19:30:42.947Z,3.10
2018-07-02T19:33:11.921Z,1.53
2018-07-02T19:35:41.413Z,1.83
2018-07-02T19:38:10.450Z,2.70
2018-07-02T19:40:39.454Z,6.07
2018-07-02T19:43:08.439Z,3.43
2018-07-02T19:45:38.023Z,2.53
2018-07-02T19:48:06.987Z,3.10
2018-07-02T19:50:36.074Z,2.03
2018-07-02T19:53:05.270Z,5.27
2018-07-02T19:55:34.243Z,2.47
2018-07-02T19:58:03.369Z,3.83
2018-07-02T20:00:32.976Z,5.50
2018-07-02T20:03:01.956Z,5.50
2018-07-02T20:05:31.410Z,1.87
2018-07-02T20:08:00.539Z,2.03
2018-07-02T20:10:29.539Z,1.87
2018-07-02T20:12:58.735Z,1.87
2018-07-02T20:15:28.183Z,2.43
2018-07-02T20:17:57.544Z,2.87
2018-07-02T20:20:27.242Z,6.63
2018-07-02T20:22:56.166Z,14.90
2018-07-02T20:25:25.735Z,6.20
2018-07-02T20:27:54.942Z,17.20
2018-07-02T20:30:24.218Z,18.17
2018-07-02T20:32:53.496Z,5.00
2018-07-02T20:35:22.798Z,10.43
2018-07-02T20:37:52.500Z,14.00
2018-07-02T20:40:21.495Z,11.07
2018-07-02T20:42:50.505Z,9.17
2018-07-02T20:45:19.700Z,10.27
2018-07-02T20:47:48.634Z,7.00
2018-07-02T20:50:17.599Z,5.13
2018-07-02T20:52:47.159Z,4.73
2018-07-02T20:55:16.250Z,2.43
2018-07-02T20:57:45.201Z,2.90
2018-07-02T21:00:14.170Z,2.83
2018-07-02T21:02:44.154Z,3.27
2018-07-02T21:05:13.221Z,3.60
2018-07-02T21:07:42.453Z,2.30
2018-07-02T21:10:11.790Z,3.07
2018-07-02T21:12:41.315Z,5.00
2018-07-02T21:15:10.968Z,6.43
2018-07-02T21:17:40.262Z,3.67
2018-07-02T21:20:09.343Z,3.50
2018-07-02T21:22:38.377Z,2.57
2018-07-02T21:25:07.685Z,2.87
2018-07-02T21:27:36.697Z,2.60
2018-07-02T21:30:07.760Z,2.57
2018-07-02T21:32:37.657Z,8.67
2018-07-02T21:35:09.066Z,5.77
2018-07-02T21:37:38.075Z,8.30
2018-07-02T21:40:07.213Z,6.37
2018-07-02T21:42:36.349Z,2.70
2018-07-02T21:45:08.592Z,2.70
2018-07-02T21:47:38.523Z,51.43
2018-07-02T21:50:07.832Z,61.27
2018-07-02T21:52:36.879Z,35.83
2018-07-02T21:55:09.063Z,25.00
2018-07-02T21:57:38.588Z,3.63
2018-07-02T22:00:12.079Z,7.87
2018-07-02T22:02:41.170Z,9.40
2018-07-02T22:05:10.548Z,26.47
2018-07-02T22:07:40.462Z,35.63
2018-07-02T22:10:09.519Z,23.70
2018-07-02T22:12:39.035Z,14.20
2018-07-02T22:15:08.128Z,10.27
2018-07-02T22:17:41.868Z,6.47
2018-07-02T22:20:10.873Z,11.30
2018-07-02T22:22:39.942Z,2.43
2018-07-02T22:25:08.912Z,18.00
2018-07-02T22:27:38.494Z,4.07
2018-07-02T22:30:07.635Z,5.77
2018-07-02T22:32:36.765Z,3.67
2018-07-02T22:35:07.187Z,2.23
2018-07-02T22:37:36.431Z,3.83
2018-07-02T22:40:05.690Z,2.47
2018-07-02T22:42:34.623Z,3.47
2018-07-02T22:45:06.928Z,3.47
2018-07-02T22:47:36.367Z,16.40
2018-07-02T22:50:05.382Z,4.73
2018-07-02T22:52:34.341Z,6.40
2018-07-02T22:55:06.550Z,2.10
2018-07-02T22:57:35.548Z,2.50
2018-07-02T23:00:05.215Z,2.70
2018-07-02T23:02:34.311Z,2.07
2018-07-02T23:05:06.473Z,2.80
2018-07-02T23:07:35.670Z,2.00
2018-07-02T23:10:04.831Z,2.63
2018-07-02T23:12:33.797Z,2.40
2018-07-02T23:15:06.043Z,3.80
2018-07-02T23:17:35.351Z,8.50
2018-07-02T23:20:05.054Z,3.57
2018-07-02T23:22:48.468Z,22.03
2018-07-02T23:25:17.793Z,10.67
2018-07-02T23:27:47.600Z,2.70
2018-07-02T23:30:16.715Z,2.30
2018-07-02T23:32:45.994Z,1.70
2018-07-02T23:35:15.244Z,2.63
2018-07-02T23:37:44.395Z,1.80
2018-07-02T23:40:13.484Z,1.37
2018-07-02T23:42:42.771Z,2.27
2018-07-02T23:45:12.243Z,2.30
2018-07-02T23:47:41.206Z,1.80
2018-07-02T23:50:10.203Z,1.80
2018-07-02T23:52:39.351Z,1.80
2018-07-02T23:55:08.623Z,1.50
2018-07-02T23:57:37.876Z,22.60
